Time;durP1;ratioP1;P1;durP2;ratioP2;P2;SDS_P1;SDS_P2;PMS_P1;PMS_P2;Temp;Humidity;BMP_temperature;BMP_pressure;BME280_temperature;BME280_humidity;BME280_pressure;Samples;Min_cycle;Max_cycle;Signal;HPM_P1;HPM_P2
2021/09/09 00:01:23;;;;;;;5.78;3.55;;;;;;;;;;5032203;28;20692;-60
2021/09/09 00:03:48;;;;;;;5.78;3.65;;;;;;;;;;5032657;28;20113;-60
2021/09/09 00:06:14;;;;;;;5.18;3.63;;;;;;;;;;5031575;28;20025;-60
2021/09/09 00:08:39;;;;;;;8.43;3.42;;;;;;;;;;5031725;28;20359;-60
2021/09/09 00:11:04;;;;;;;6.40;4.80;;;;;;;;;;5032678;28;20025;-60
2021/09/09 00:13:30;;;;;;;5.32;4.07;;;;;;;;;;5031187;28;20052;-60
2021/09/09 00:15:55;;;;;;;2.88;2.22;;;;;;;;;;5032056;28;20471;-59
2021/09/09 00:18:21;;;;;;;4.57;3.13;;;;;;;;;;5029941;28;20029;-60
2021/09/09 00:20:46;;;;;;;4.25;3.35;;;;;;;;;;5031918;28;20477;-60
2021/09/09 00:23:11;;;;;;;5.65;3.45;;;;;;;;;;5032137;28;20033;-60
2021/09/09 00:25:37;;;;;;;5.03;3.72;;;;;;;;;;5031965;28;20033;-60
2021/09/09 00:28:02;;;;;;;6.45;4.25;;;;;;;;;;5030748;28;20033;-59
2021/09/09 00:30:28;;;;;;;4.68;3.38;;;;;;;;;;5030932;28;20037;-59
2021/09/09 00:32:54;;;;;;;5.82;3.85;;;;;;;;;;5029677;28;20040;-59
2021/09/09 00:35:19;;;;;;;4.40;3.30;;;;;;;;;;5030855;28;20562;-59
2021/09/09 00:37:45;;;;;;;5.05;3.38;;;;;;;;;;5031072;28;20119;-59
2021/09/09 00:40:11;;;;;;;4.35;3.53;;;;;;;;;;5032153;28;20022;-59
2021/09/09 00:42:36;;;;;;;5.18;3.67;;;;;;;;;;5031550;28;20176;-59
2021/09/09 00:45:02;;;;;;;6.63;3.88;;;;;;;;;;5035230;28;20026;-59
2021/09/09 00:47:28;;;;;;;4.63;3.42;;;;;;;;;;5031097;28;20091;-59
2021/09/09 00:49:53;;;;;;;4.80;3.50;;;;;;;;;;5031620;28;20029;-59
2021/09/09 00:52:18;;;;;;;6.05;3.47;;;;;;;;;;5029502;28;20069;-59
2021/09/09 00:54:46;;;;;;;5.05;3.60;;;;;;;;;;5027646;28;20029;-59
2021/09/09 00:57:15;;;;;;;6.45;4.30;;;;;;;;;;5031139;28;20057;-58
2021/09/09 00:59:40;;;;;;;4.88;3.50;;;;;;;;;;5031115;28;20091;-59
2021/09/09 01:02:05;;;;;;;7.93;4.75;;;;;;;;;;5029953;28;20025;-59
2021/09/09 01:04:31;;;;;;;6.45;3.53;;;;;;;;;;5030540;28;20034;-59
2021/09/09 01:06:59;;;;;;;4.10;3.03;;;;;;;;;;5030549;28;20056;-59
2021/09/09 01:09:24;;;;;;;5.05;3.25;;;;;;;;;;5029428;28;20067;-59
2021/09/09 01:11:50;;;;;;;4.82;3.53;;;;;;;;;;5029429;28;20429;-59
2021/09/09 01:14:16;;;;;;;7.45;4.40;;;;;;;;;;5029311;28;20037;-59
2021/09/09 01:16:44;;;;;;;6.28;4.30;;;;;;;;;;5029365;28;20036;-60
2021/09/09 01:19:10;;;;;;;5.28;4.05;;;;;;;;;;5030708;28;20032;-59
2021/09/09 01:21:37;;;;;;;6.75;4.53;;;;;;;;;;5028205;28;20017;-60
2021/09/09 01:24:08;;;;;;;5.32;3.75;;;;;;;;;;5030629;28;20067;-60
2021/09/09 01:26:56;;;;;;;4.43;3.35;;;;;;;;;;5029076;28;20025;-60
2021/09/09 01:29:31;;;;;;;3.33;2.65;;;;;;;;;;5030602;28;20033;-60
2021/09/09 01:31:57;;;;;;;4.78;3.67;;;;;;;;;;5029119;28;20037;-60
2021/09/09 01:34:23;;;;;;;5.40;3.35;;;;;;;;;;5029413;28;20036;-60
2021/09/09 01:36:50;;;;;;;4.85;3.30;;;;;;;;;;5028198;28;20049;-60
2021/09/09 01:39:15;;;;;;;5.22;3.78;;;;;;;;;;5030110;28;20344;-60
2021/09/09 01:41:41;;;;;;;4.72;3.45;;;;;;;;;;5031604;28;20037;-60
2021/09/09 01:44:07;;;;;;;5.85;4.05;;;;;;;;;;5029455;28;20037;-60
2021/09/09 01:46:33;;;;;;;4.82;3.83;;;;;;;;;;5029743;28;20029;-60
2021/09/09 01:48:59;;;;;;;5.18;4.10;;;;;;;;;;5029519;28;20036;-60
2021/09/09 01:51:26;;;;;;;6.57;4.38;;;;;;;;;;5028872;28;20029;-60
2021/09/09 01:53:52;;;;;;;4.93;3.05;;;;;;;;;;5029227;28;20552;-60
2021/09/09 01:56:18;;;;;;;5.40;3.60;;;;;;;;;;5029584;28;20029;-60
2021/09/09 01:58:43;;;;;;;6.28;4.15;;;;;;;;;;5030057;28;20414;-60
2021/09/09 02:01:09;;;;;;;3.65;2.75;;;;;;;;;;5028444;28;20018;-60
2021/09/09 02:03:35;;;;;;;4.47;3.22;;;;;;;;;;5024086;28;20106;-60
2021/09/09 02:06:01;;;;;;;5.68;4.25;;;;;;;;;;5027110;28;20037;-60
2021/09/09 02:08:27;;;;;;;4.95;3.35;;;;;;;;;;5028376;28;20107;-60
2021/09/09 02:10:52;;;;;;;6.43;4.13;;;;;;;;;;5027853;28;20120;-60
2021/09/09 02:13:18;;;;;;;4.97;3.53;;;;;;;;;;5030013;28;20029;-60
2021/09/09 02:15:43;;;;;;;5.10;3.83;;;;;;;;;;5029669;28;20061;-60
2021/09/09 02:18:09;;;;;;;3.92;2.83;;;;;;;;;;5028694;28;20158;-60
2021/09/09 02:20:34;;;;;;;3.75;2.75;;;;;;;;;;5028955;28;20121;-60
2021/09/09 02:22:59;;;;;;;8.82;3.95;;;;;;;;;;5030052;28;20155;-60
2021/09/09 02:25:25;;;;;;;4.28;2.97;;;;;;;;;;5028820;28;20032;-60
2021/09/09 02:27:50;;;;;;;3.70;2.90;;;;;;;;;;5027905;28;20033;-60
2021/09/09 02:30:16;;;;;;;6.40;4.68;;;;;;;;;;5029029;28;20039;-60
2021/09/09 02:32:42;;;;;;;4.78;3.53;;;;;;;;;;5029689;28;20033;-60
2021/09/09 02:35:08;;;;;;;5.72;3.47;;;;;;;;;;5028704;28;20017;-60
2021/09/09 02:37:33;;;;;;;5.40;3.22;;;;;;;;;;5028943;28;20037;-60
2021/09/09 02:39:59;;;;;;;6.55;3.45;;;;;;;;;;5029702;28;20052;-60
2021/09/09 02:42:24;;;;;;;4.03;3.40;;;;;;;;;;5028814;28;20037;-60
2021/09/09 02:44:49;;;;;;;5.00;3.03;;;;;;;;;;5024287;28;20041;-60
2021/09/09 02:47:15;;;;;;;4.38;3.28;;;;;;;;;;5028856;28;20079;-60
2021/09/09 02:49:40;;;;;;;4.13;3.35;;;;;;;;;;5029181;28;20061;-60
2021/09/09 02:52:06;;;;;;;4.60;3.40;;;;;;;;;;5029548;28;20410;-60
2021/09/09 02:54:32;;;;;;;4.45;3.28;;;;;;;;;;5027764;28;20033;-60
2021/09/09 02:56:58;;;;;;;5.03;3.17;;;;;;;;;;5028624;28;20086;-60
2021/09/09 02:59:23;;;;;;;3.83;3.20;;;;;;;;;;5029046;28;20037;-60
2021/09/09 03:01:49;;;;;;;5.97;3.45;;;;;;;;;;5029541;28;20097;-60
2021/09/09 03:04:14;;;;;;;3.88;2.70;;;;;;;;;;5028797;28;20033;-60
2021/09/09 03:06:39;;;;;;;4.03;3.22;;;;;;;;;;5028875;28;20064;-60
2021/09/09 03:09:05;;;;;;;5.82;3.63;;;;;;;;;;5029068;28;20022;-60
2021/09/09 03:11:30;;;;;;;4.88;3.28;;;;;;;;;;5030256;28;20029;-60
2021/09/09 03:13:56;;;;;;;6.75;3.25;;;;;;;;;;5027780;28;20066;-60
2021/09/09 03:16:21;;;;;;;4.20;3.42;;;;;;;;;;5028901;28;20041;-60
2021/09/09 03:18:46;;;;;;;6.18;4.28;;;;;;;;;;5029675;28;20455;-60
2021/09/09 03:21:12;;;;;;;5.43;4.05;;;;;;;;;;5028790;28;20112;-60
2021/09/09 03:23:37;;;;;;;5.88;4.20;;;;;;;;;;5029094;28;20030;-59
2021/09/09 03:26:03;;;;;;;7.30;4.03;;;;;;;;;;5029225;28;20113;-60
2021/09/09 03:28:28;;;;;;;4.43;3.28;;;;;;;;;;5028904;28;20037;-60
2021/09/09 03:30:53;;;;;;;4.50;3.92;;;;;;;;;;5021348;28;20037;-60
2021/09/09 03:33:19;;;;;;;4.90;3.15;;;;;;;;;;5028878;28;20463;-60
2021/09/09 03:35:44;;;;;;;4.40;2.72;;;;;;;;;;5028835;28;20033;-60
2021/09/09 03:38:10;;;;;;;5.13;3.83;;;;;;;;;;5028733;28;20371;-60
2021/09/09 03:40:36;;;;;;;6.03;4.22;;;;;;;;;;5028472;28;20033;-60
2021/09/09 03:43:02;;;;;;;6.80;4.28;;;;;;;;;;5029202;28;20083;-60
2021/09/09 03:45:28;;;;;;;4.35;3.08;;;;;;;;;;5028061;28;20041;-60
2021/09/09 03:47:53;;;;;;;7.53;3.97;;;;;;;;;;5028874;28;20033;-60
2021/09/09 03:50:18;;;;;;;5.18;3.88;;;;;;;;;;5028923;28;20034;-60
2021/09/09 03:52:44;;;;;;;5.07;3.70;;;;;;;;;;5027824;28;20029;-59
2021/09/09 03:55:10;;;;;;;5.07;3.80;;;;;;;;;;5028328;28;20375;-60
2021/09/09 03:57:36;;;;;;;4.75;3.88;;;;;;;;;;5028125;28;20037;-59
2021/09/09 04:00:02;;;;;;;5.43;3.78;;;;;;;;;;5029183;28;20036;-59
2021/09/09 04:02:28;;;;;;;5.05;3.75;;;;;;;;;;5027000;28;20136;-59
2021/09/09 04:04:53;;;;;;;5.07;3.88;;;;;;;;;;5024004;28;20163;-59
2021/09/09 04:07:18;;;;;;;5.82;3.35;;;;;;;;;;5030049;28;20036;-59
2021/09/09 04:09:44;;;;;;;4.97;3.65;;;;;;;;;;5032264;28;20138;-59
2021/09/09 04:12:09;;;;;;;5.68;3.75;;;;;;;;;;5030947;28;20029;-58
2021/09/09 04:14:34;;;;;;;4.28;3.13;;;;;;;;;;5031633;28;20668;-59
2021/09/09 04:17:00;;;;;;;4.97;3.67;;;;;;;;;;5032020;28;20025;-59
2021/09/09 04:19:26;;;;;;;5.68;3.80;;;;;;;;;;5030224;28;20163;-59
2021/09/09 04:21:52;;;;;;;7.15;3.78;;;;;;;;;;5029249;28;20033;-59
2021/09/09 04:24:20;;;;;;;3.70;2.78;;;;;;;;;;5031933;28;20458;-59
2021/09/09 04:26:46;;;;;;;4.72;3.33;;;;;;;;;;5032298;28;20030;-59
2021/09/09 04:29:12;;;;;;;6.60;4.05;;;;;;;;;;5030402;28;20040;-61
2021/09/09 04:31:38;;;;;;;7.15;4.28;;;;;;;;;;5031684;28;20030;-60
2021/09/09 04:34:03;;;;;;;4.57;3.42;;;;;;;;;;5031766;28;20076;-61
2021/09/09 04:36:29;;;;;;;4.88;3.25;;;;;;;;;;5031724;28;20029;-60
2021/09/09 04:38:54;;;;;;;4.53;3.33;;;;;;;;;;5030820;28;20410;-60
2021/09/09 04:41:19;;;;;;;4.25;3.30;;;;;;;;;;5032198;28;20116;-60
2021/09/09 04:43:46;;;;;;;4.90;4.20;;;;;;;;;;5031158;28;20419;-60
2021/09/09 04:46:11;;;;;;;4.70;3.30;;;;;;;;;;5028277;28;20040;-60
2021/09/09 04:48:37;;;;;;;7.45;4.57;;;;;;;;;;5030016;28;20033;-60
2021/09/09 04:51:02;;;;;;;4.90;3.65;;;;;;;;;;5031250;28;20116;-63
2021/09/09 04:53:27;;;;;;;3.90;3.17;;;;;;;;;;5030482;28;20033;-61
2021/09/09 04:55:54;;;;;;;5.18;4.13;;;;;;;;;;5031684;28;20141;-60
2021/09/09 04:58:19;;;;;;;6.07;3.45;;;;;;;;;;5030418;28;20037;-60
2021/09/09 05:00:45;;;;;;;5.45;4.18;;;;;;;;;;5031514;28;20103;-60
2021/09/09 05:03:10;;;;;;;4.00;3.05;;;;;;;;;;5031051;28;20383;-60
2021/09/09 05:05:36;;;;;;;7.93;4.32;;;;;;;;;;5031307;28;20172;-60
2021/09/09 05:08:01;;;;;;;14.13;3.33;;;;;;;;;;5030290;28;20026;-60
2021/09/09 05:10:26;;;;;;;4.80;3.28;;;;;;;;;;5030381;28;20106;-60
2021/09/09 05:12:52;;;;;;;4.00;3.15;;;;;;;;;;5029441;28;20095;-60
2021/09/09 05:15:17;;;;;;;4.63;3.03;;;;;;;;;;5027485;28;20434;-60
2021/09/09 05:17:43;;;;;;;3.90;3.20;;;;;;;;;;5030356;28;20048;-60
2021/09/09 05:20:08;;;;;;;4.68;3.47;;;;;;;;;;5028740;28;20096;-60
2021/09/09 05:22:34;;;;;;;5.65;4.00;;;;;;;;;;5028527;28;20125;-60
2021/09/09 05:25:03;;;;;;;4.70;3.70;;;;;;;;;;5028617;28;20087;-60
2021/09/09 05:27:29;;;;;;;6.07;4.10;;;;;;;;;;5027342;28;20061;-60
2021/09/09 05:29:54;;;;;;;4.32;3.40;;;;;;;;;;5030876;28;20063;-60
2021/09/09 05:32:19;;;;;;;5.25;4.15;;;;;;;;;;5030307;28;20061;-60
2021/09/09 05:34:45;;;;;;;4.50;3.25;;;;;;;;;;5030858;28;20488;-57
2021/09/09 05:37:10;;;;;;;7.93;3.85;;;;;;;;;;5028493;28;20033;-57
2021/09/09 05:39:36;;;;;;;4.82;3.03;;;;;;;;;;5024809;28;20044;-57
2021/09/09 05:42:01;;;;;;;5.90;4.35;;;;;;;;;;5031130;28;20049;-58
2021/09/09 05:44:26;;;;;;;5.65;4.03;;;;;;;;;;5030574;28;20033;-57
2021/09/09 05:46:52;;;;;;;4.45;3.80;;;;;;;;;;5030525;28;20025;-57
2021/09/09 05:49:17;;;;;;;3.90;2.70;;;;;;;;;;5030265;28;20029;-60
2021/09/09 05:51:42;;;;;;;5.47;3.50;;;;;;;;;;5029458;28;20045;-60
2021/09/09 05:54:08;;;;;;;3.60;3.00;;;;;;;;;;5029606;28;20033;-59
2021/09/09 05:56:33;;;;;;;6.35;4.32;;;;;;;;;;5029875;28;20033;-60
2021/09/09 05:59:00;;;;;;;9.35;3.90;;;;;;;;;;5025884;28;20037;-60
2021/09/09 06:01:27;;;;;;;4.90;3.05;;;;;;;;;;5027185;28;20064;-60
2021/09/09 06:03:54;;;;;;;6.43;4.13;;;;;;;;;;5026002;28;20036;-57
2021/09/09 06:06:19;;;;;;;4.60;3.47;;;;;;;;;;5026010;28;20095;-57
2021/09/09 06:08:45;;;;;;;5.28;4.15;;;;;;;;;;5026483;28;20041;-57
2021/09/09 06:11:11;;;;;;;4.88;3.50;;;;;;;;;;5027991;28;20041;-57
2021/09/09 06:13:36;;;;;;;4.63;3.92;;;;;;;;;;5027538;28;20033;-57
2021/09/09 06:16:01;;;;;;;5.68;4.78;;;;;;;;;;5027988;28;20025;-57
2021/09/09 06:18:27;;;;;;;5.60;3.45;;;;;;;;;;5028212;28;20053;-60
2021/09/09 06:20:52;;;;;;;9.38;4.22;;;;;;;;;;5028646;28;20300;-60
2021/09/09 06:23:18;;;;;;;4.85;3.65;;;;;;;;;;5027957;28;20057;-60
2021/09/09 06:25:43;;;;;;;6.75;3.90;;;;;;;;;;5028547;28;20086;-60
2021/09/09 06:28:10;;;;;;;6.07;4.15;;;;;;;;;;5028691;28;20443;-60
2021/09/09 06:30:36;;;;;;;6.93;4.88;;;;;;;;;;5025170;28;20037;-60
2021/09/09 06:33:02;;;;;;;5.93;4.20;;;;;;;;;;5029108;28;20545;-60
2021/09/09 06:35:29;;;;;;;7.05;4.75;;;;;;;;;;5028919;28;20042;-60
2021/09/09 06:37:55;;;;;;;4.18;3.42;;;;;;;;;;5027721;28;20058;-59
2021/09/09 06:40:21;;;;;;;6.50;4.30;;;;;;;;;;5023737;28;20037;-60
2021/09/09 06:42:47;;;;;;;5.07;3.75;;;;;;;;;;5027027;28;20336;-60
2021/09/09 06:45:13;;;;;;;5.35;3.75;;;;;;;;;;5026698;28;20033;-60
2021/09/09 06:47:38;;;;;;;5.00;3.70;;;;;;;;;;5024742;28;20498;-60
2021/09/09 06:50:04;;;;;;;4.05;3.38;;;;;;;;;;5027042;28;20025;-59
2021/09/09 06:52:29;;;;;;;6.93;4.50;;;;;;;;;;5028178;28;20178;-59
2021/09/09 06:54:55;;;;;;;5.47;3.85;;;;;;;;;;5026689;28;20110;-59
2021/09/09 06:57:20;;;;;;;5.82;4.45;;;;;;;;;;5028268;28;20041;-59
2021/09/09 06:59:45;;;;;;;4.18;3.17;;;;;;;;;;5028187;28;20539;-59
2021/09/09 07:02:11;;;;;;;9.63;4.20;;;;;;;;;;5027083;28;20044;-60
2021/09/09 07:04:36;;;;;;;5.53;4.07;;;;;;;;;;5027587;28;20123;-59
2021/09/09 07:07:02;;;;;;;6.13;4.10;;;;;;;;;;5030770;28;20359;-59
2021/09/09 07:09:27;;;;;;;4.15;3.30;;;;;;;;;;5025781;28;20033;-60
2021/09/09 07:11:52;;;;;;;3.83;3.20;;;;;;;;;;5026515;28;20030;-60
2021/09/09 07:14:18;;;;;;;6.07;4.22;;;;;;;;;;5027222;28;20348;-59
2021/09/09 07:16:43;;;;;;;4.50;3.35;;;;;;;;;;5027238;28;20044;-60
2021/09/09 07:19:09;;;;;;;5.20;4.35;;;;;;;;;;5024817;28;20029;-60
2021/09/09 07:21:34;;;;;;;9.40;5.15;;;;;;;;;;5032750;28;20108;-57
2021/09/09 07:23:59;;;;;;;5.30;4.15;;;;;;;;;;5026819;28;20056;-58
2021/09/09 07:26:25;;;;;;;6.30;4.10;;;;;;;;;;5027353;28;20037;-58
2021/09/09 07:28:50;;;;;;;6.70;4.13;;;;;;;;;;5024285;28;20474;-58
2021/09/09 07:31:16;;;;;;;4.47;3.53;;;;;;;;;;5024063;28;20471;-58
2021/09/09 07:33:41;;;;;;;5.03;3.67;;;;;;;;;;5025965;28;20073;-58
2021/09/09 07:36:07;;;;;;;5.80;4.40;;;;;;;;;;5024584;28;20109;-58
2021/09/09 07:38:34;;;;;;;8.52;4.85;;;;;;;;;;5027179;28;20026;-58
2021/09/09 07:41:00;;;;;;;6.65;4.03;;;;;;;;;;5027956;28;20046;-58
2021/09/09 07:43:26;;;;;;;5.00;4.13;;;;;;;;;;5028123;28;20375;-58
2021/09/09 07:45:51;;;;;;;5.80;4.43;;;;;;;;;;5031815;28;20043;-58
2021/09/09 07:48:17;;;;;;;6.57;4.97;;;;;;;;;;5027826;28;20049;-58
2021/09/09 07:50:44;;;;;;;6.07;5.30;;;;;;;;;;5029262;28;20029;-58
2021/09/09 07:53:10;;;;;;;15.48;5.57;;;;;;;;;;5028644;28;20064;-58
2021/09/09 07:55:35;;;;;;;6.57;5.05;;;;;;;;;;5032393;28;20057;-58
2021/09/09 07:58:01;;;;;;;5.35;4.50;;;;;;;;;;5026124;28;20479;-58
2021/09/09 08:00:26;;;;;;;5.40;4.68;;;;;;;;;;5028513;28;20041;-59
2021/09/09 08:02:51;;;;;;;5.55;4.60;;;;;;;;;;5026012;28;20517;-59
2021/09/09 08:05:17;;;;;;;6.00;5.40;;;;;;;;;;5028090;28;20140;-58
2021/09/09 08:07:44;;;;;;;6.32;5.47;;;;;;;;;;5029553;28;20084;-58
2021/09/09 08:10:13;;;;;;;6.05;5.45;;;;;;;;;;5031349;28;20488;-58
2021/09/09 08:12:38;;;;;;;5.07;4.18;;;;;;;;;;5033082;28;20037;-58
2021/09/09 08:15:04;;;;;;;5.82;4.97;;;;;;;;;;5029017;28;20045;-58
2021/09/09 08:17:30;;;;;;;6.65;4.75;;;;;;;;;;5026050;28;20505;-58
2021/09/09 08:19:55;;;;;;;5.35;4.63;;;;;;;;;;5024919;28;20044;-58
2021/09/09 08:22:20;;;;;;;6.93;5.72;;;;;;;;;;5027792;28;20493;-58
2021/09/09 08:24:46;;;;;;;9.68;5.75;;;;;;;;;;5028889;28;20033;-59
2021/09/09 08:27:11;;;;;;;7.05;5.13;;;;;;;;;;5029822;28;20040;-58
2021/09/09 08:29:36;;;;;;;6.50;5.43;;;;;;;;;;5030552;28;20116;-58
2021/09/09 08:32:02;;;;;;;8.18;5.72;;;;;;;;;;5028606;28;20033;-58
2021/09/09 08:34:28;;;;;;;5.82;5.18;;;;;;;;;;5020131;28;20565;-59
2021/09/09 08:36:54;;;;;;;5.07;4.47;;;;;;;;;;5028674;28;20066;-59
2021/09/09 08:39:19;;;;;;;5.97;4.68;;;;;;;;;;5026538;28;20455;-58
2021/09/09 08:41:45;;;;;;;5.72;5.03;;;;;;;;;;5028560;28;20675;-59
2021/09/09 08:44:11;;;;;;;7.82;6.20;;;;;;;;;;5030708;28;20041;-59
2021/09/09 08:46:36;;;;;;;7.80;5.90;;;;;;;;;;5029989;28;20108;-59
2021/09/09 08:49:02;;;;;;;6.03;5.45;;;;;;;;;;5030369;28;20117;-58
2021/09/09 08:51:28;;;;;;;6.50;5.60;;;;;;;;;;5028769;28;20476;-58
2021/09/09 08:53:53;;;;;;;6.40;5.40;;;;;;;;;;5029307;28;20025;-59
2021/09/09 08:56:19;;;;;;;6.57;4.82;;;;;;;;;;5029754;28;20120;-59
2021/09/09 08:58:44;;;;;;;6.85;5.07;;;;;;;;;;5027911;28;20044;-58
2021/09/09 09:01:14;;;;;;;5.38;4.88;;;;;;;;;;5028278;28;20033;-59
2021/09/09 09:03:53;;;;;;;7.38;5.95;;;;;;;;;;5027193;28;20033;-59
2021/09/09 09:06:21;;;;;;;5.05;4.47;;;;;;;;;;5029576;28;20113;-59
2021/09/09 09:08:52;;;;;;;5.28;4.13;;;;;;;;;;5029648;28;20041;-58
2021/09/09 09:11:22;;;;;;;4.55;4.15;;;;;;;;;;5030104;28;20033;-58
2021/09/09 09:13:48;;;;;;;8.02;3.70;;;;;;;;;;5027613;28;20041;-59
2021/09/09 09:16:14;;;;;;;5.20;4.43;;;;;;;;;;5029623;28;20045;-58
2021/09/09 09:18:41;;;;;;;5.07;4.47;;;;;;;;;;5028044;28;20043;-59
2021/09/09 09:21:07;;;;;;;4.93;4.50;;;;;;;;;;5025498;28;20059;-59
2021/09/09 09:23:32;;;;;;;5.40;4.55;;;;;;;;;;5025434;28;20478;-58
2021/09/09 09:26:02;;;;;;;4.35;3.83;;;;;;;;;;5020703;28;20030;-58
2021/09/09 09:28:52;;;;;;;5.03;4.53;;;;;;;;;;5026839;28;20041;-58
2021/09/09 09:31:25;;;;;;;6.40;4.80;;;;;;;;;;5029892;28;20041;-58
2021/09/09 09:33:56;;;;;;;5.70;5.07;;;;;;;;;;5028987;28;20031;-58
2021/09/09 09:36:29;;;;;;;6.38;5.82;;;;;;;;;;5030003;28;20534;-58
2021/09/09 09:39:16;;;;;;;5.10;4.70;;;;;;;;;;5026679;28;20038;-59
2021/09/09 09:41:56;;;;;;;6.72;6.15;;;;;;;;;;5029463;28;20029;-59
2021/09/09 09:44:27;;;;;;;9.85;6.30;;;;;;;;;;5029177;28;20061;-58
2021/09/09 09:46:52;;;;;;;7.45;6.82;;;;;;;;;;5029600;28;20033;-59
2021/09/09 09:49:19;;;;;;;8.35;7.55;;;;;;;;;;5027074;28;20373;-58
2021/09/09 09:51:49;;;;;;;8.05;7.43;;;;;;;;;;5027783;28;20025;-59
2021/09/09 09:54:16;;;;;;;8.52;7.82;;;;;;;;;;5029264;28;20117;-59
2021/09/09 09:56:43;;;;;;;8.98;8.27;;;;;;;;;;5027551;28;20660;-58
2021/09/09 09:59:08;;;;;;;8.68;8.07;;;;;;;;;;5026155;28;20059;-60
2021/09/09 10:01:35;;;;;;;9.93;9.18;;;;;;;;;;5027010;28;20454;-59
2021/09/09 10:04:04;;;;;;;12.50;11.57;;;;;;;;;;5028220;28;20040;-58
2021/09/09 10:06:32;;;;;;;11.80;11.00;;;;;;;;;;5028195;28;20037;-59
2021/09/09 10:08:58;;;;;;;10.32;9.55;;;;;;;;;;5028503;28;20038;-59
2021/09/09 10:11:23;;;;;;;10.32;9.63;;;;;;;;;;5028102;28;20032;-59
2021/09/09 10:13:49;;;;;;;12.35;11.50;;;;;;;;;;5026109;28;20525;-58
2021/09/09 10:16:16;;;;;;;12.10;11.10;;;;;;;;;;5026921;28;20034;-58
2021/09/09 10:18:45;;;;;;;13.63;11.45;;;;;;;;;;5028289;28;20391;-58
2021/09/09 10:21:11;;;;;;;11.88;10.98;;;;;;;;;;5027903;28;20025;-58
2021/09/09 10:23:36;;;;;;;12.32;11.48;;;;;;;;;;5028224;28;20091;-58
2021/09/09 10:26:02;;;;;;;11.30;10.50;;;;;;;;;;5029120;28;20410;-60
2021/09/09 10:28:45;;;;;;;11.98;11.18;;;;;;;;;;5027766;28;20041;-58
2021/09/09 10:31:11;;;;;;;10.70;10.00;;;;;;;;;;5028652;28;20091;-59
2021/09/09 10:34:21;;;;;;;11.55;10.75;;;;;;;;;;5030490;28;20042;-59
2021/09/09 10:36:47;;;;;;;10.57;9.85;;;;;;;;;;5021061;28;20052;-59
2021/09/09 10:39:21;;;;;;;10.55;9.75;;;;;;;;;;5027582;28;20033;-59
2021/09/09 10:41:47;;;;;;;10.05;9.43;;;;;;;;;;5027434;28;20087;-58
2021/09/09 10:44:13;;;;;;;9.98;9.23;;;;;;;;;;5027549;28;20099;-58
2021/09/09 10:46:40;;;;;;;9.90;9.10;;;;;;;;;;5026724;28;20065;-58
2021/09/09 10:49:15;;;;;;;11.30;10.40;;;;;;;;;;5025879;28;20030;-58
2021/09/09 10:52:09;;;;;;;11.80;10.80;;;;;;;;;;5028074;28;20033;-58
2021/09/09 10:55:04;;;;;;;11.95;11.15;;;;;;;;;;5026788;28;20033;-58
2021/09/09 10:57:29;;;;;;;11.70;10.88;;;;;;;;;;5025871;28;20041;-59
2021/09/09 10:59:55;;;;;;;11.93;11.13;;;;;;;;;;5026116;28;20029;-58
2021/09/09 11:02:20;;;;;;;10.20;9.48;;;;;;;;;;5028416;28;20116;-58
2021/09/09 11:04:48;;;;;;;11.52;10.63;;;;;;;;;;5027547;28;20347;-58
2021/09/09 11:07:21;;;;;;;10.77;9.90;;;;;;;;;;5028277;28;20465;-58
2021/09/09 11:09:46;;;;;;;10.00;9.27;;;;;;;;;;5027576;28;20489;-58
2021/09/09 11:12:12;;;;;;;10.95;9.75;;;;;;;;;;5029282;28;20041;-58
2021/09/09 11:14:37;;;;;;;10.45;9.75;;;;;;;;;;5027006;28;20454;-58
2021/09/09 11:17:03;;;;;;;10.02;9.32;;;;;;;;;;5031144;28;20033;-58
2021/09/09 11:19:28;;;;;;;8.65;8.05;;;;;;;;;;5032135;28;20037;-58
2021/09/09 11:21:59;;;;;;;10.25;9.18;;;;;;;;;;5031054;28;20079;-58
2021/09/09 11:24:24;;;;;;;8.70;8.05;;;;;;;;;;5028574;28;20052;-58
2021/09/09 11:26:51;;;;;;;9.23;8.43;;;;;;;;;;5026578;28;20041;-58
2021/09/09 11:29:24;;;;;;;8.70;8.00;;;;;;;;;;5024940;28;20033;-58
2021/09/09 11:31:52;;;;;;;7.95;7.35;;;;;;;;;;5028220;28;20527;-58
2021/09/09 11:34:25;;;;;;;8.70;7.70;;;;;;;;;;5026131;28;20131;-57
2021/09/09 11:36:52;;;;;;;7.85;7.28;;;;;;;;;;5032747;28;20029;-57
2021/09/09 11:39:21;;;;;;;8.48;7.78;;;;;;;;;;5030073;28;20033;-57
2021/09/09 11:41:48;;;;;;;8.57;7.97;;;;;;;;;;5029137;28;20683;-57
2021/09/09 11:44:24;;;;;;;8.15;7.53;;;;;;;;;;5030898;28;20046;-58
2021/09/09 11:46:50;;;;;;;9.23;8.55;;;;;;;;;;5032376;28;20479;-58
2021/09/09 11:49:17;;;;;;;8.88;8.07;;;;;;;;;;5031266;28;20124;-58
2021/09/09 11:51:48;;;;;;;9.65;8.85;;;;;;;;;;5029916;28;20099;-57
2021/09/09 11:54:32;;;;;;;9.05;8.32;;;;;;;;;;5027787;28;20099;-58
2021/09/09 11:57:16;;;;;;;8.55;7.95;;;;;;;;;;5028733;28;20033;-57
2021/09/09 11:59:55;;;;;;;7.75;7.15;;;;;;;;;;5030120;28;20033;-57
2021/09/09 12:02:24;;;;;;;8.27;7.68;;;;;;;;;;5026275;28;20670;-57
2021/09/09 12:04:50;;;;;;;11.43;7.30;;;;;;;;;;5030609;28;20068;-57
2021/09/09 12:07:19;;;;;;;8.75;7.93;;;;;;;;;;5028933;28;20276;-57
2021/09/09 12:10:03;;;;;;;8.65;7.95;;;;;;;;;;5028229;28;20041;-59
2021/09/09 12:12:32;;;;;;;8.05;7.43;;;;;;;;;;5022767;28;20037;-58
2021/09/09 12:14:59;;;;;;;8.85;8.20;;;;;;;;;;5024700;28;20029;-58
2021/09/09 12:17:24;;;;;;;7.78;7.25;;;;;;;;;;5026380;28;20041;-58
2021/09/09 12:20:22;;;;;;;8.73;8.02;;;;;;;;;;5029855;28;20047;-58
2021/09/09 12:22:56;;;;;;;8.48;7.88;;;;;;;;;;5026560;28;20117;-58
2021/09/09 12:25:27;;;;;;;8.13;7.53;;;;;;;;;;5025418;28;20537;-58
2021/09/09 12:28:02;;;;;;;7.47;6.88;;;;;;;;;;5027164;28;20044;-58
2021/09/09 12:30:36;;;;;;;8.63;7.60;;;;;;;;;;5026744;28;20041;-58
2021/09/09 12:33:04;;;;;;;8.50;7.90;;;;;;;;;;5026677;28;20026;-59
2021/09/09 12:35:30;;;;;;;7.22;6.72;;;;;;;;;;5027035;28;20045;-59
2021/09/09 12:38:02;;;;;;;7.40;6.78;;;;;;;;;;5029720;28;20348;-59
2021/09/09 12:40:46;;;;;;;7.35;6.80;;;;;;;;;;5028885;28;20046;-59
2021/09/09 12:43:32;;;;;;;7.57;6.95;;;;;;;;;;5029189;28;20022;-59
2021/09/09 12:46:02;;;;;;;6.65;6.15;;;;;;;;;;5026036;28;20099;-59
2021/09/09 12:48:29;;;;;;;7.13;6.53;;;;;;;;;;5021930;28;20033;-59
2021/09/09 12:51:06;;;;;;;10.40;7.88;;;;;;;;;;5027501;28;20033;-59
2021/09/09 12:53:34;;;;;;;7.78;7.18;;;;;;;;;;5027385;28;20041;-58
2021/09/09 12:56:05;;;;;;;7.00;6.32;;;;;;;;;;5029931;28;20106;-59
2021/09/09 12:58:31;;;;;;;10.20;6.78;;;;;;;;;;5029366;28;20892;-57
2021/09/09 13:00:58;;;;;;;7.03;6.43;;;;;;;;;;5029616;28;20033;-57
2021/09/09 13:03:26;;;;;;;7.45;6.95;;;;;;;;;;5028463;28;20044;-57
2021/09/09 13:05:52;;;;;;;6.20;5.70;;;;;;;;;;5029083;28;20033;-58
2021/09/09 13:08:17;;;;;;;6.18;5.68;;;;;;;;;;5028549;28;20087;-56
2021/09/09 13:10:43;;;;;;;7.75;6.95;;;;;;;;;;5028258;28;20041;-56
2021/09/09 13:13:08;;;;;;;6.57;5.97;;;;;;;;;;5030877;28;20116;-56
2021/09/09 13:15:36;;;;;;;5.93;5.43;;;;;;;;;;5030965;28;20087;-58
2021/09/09 13:18:03;;;;;;;6.18;5.68;;;;;;;;;;5030570;28;20060;-58
2021/09/09 13:20:28;;;;;;;6.53;6.03;;;;;;;;;;5030930;28;20525;-58
2021/09/09 13:22:54;;;;;;;5.70;5.20;;;;;;;;;;5031114;28;20026;-56
2021/09/09 13:25:19;;;;;;;5.70;5.25;;;;;;;;;;5028699;28;20049;-56
2021/09/09 13:27:45;;;;;;;5.63;5.22;;;;;;;;;;5028494;28;20029;-57
2021/09/09 13:30:11;;;;;;;4.97;4.57;;;;;;;;;;5030008;28;20400;-57
2021/09/09 13:32:36;;;;;;;5.75;5.25;;;;;;;;;;5030666;28;20072;-57
2021/09/09 13:35:02;;;;;;;4.95;4.55;;;;;;;;;;5025329;28;20061;-57
2021/09/09 13:37:28;;;;;;;5.53;5.05;;;;;;;;;;5025327;28;20033;-57
2021/09/09 13:39:54;;;;;;;5.13;4.72;;;;;;;;;;5026055;28;20379;-57
2021/09/09 13:42:19;;;;;;;5.88;5.38;;;;;;;;;;5030001;28;20112;-58
2021/09/09 13:44:45;;;;;;;5.32;4.88;;;;;;;;;;5028895;28;20409;-58
2021/09/09 13:47:12;;;;;;;5.32;4.90;;;;;;;;;;5027734;28;20045;-58
2021/09/09 13:49:37;;;;;;;5.00;4.60;;;;;;;;;;5029086;28;20041;-58
2021/09/09 13:52:03;;;;;;;5.80;5.30;;;;;;;;;;5030121;28;20103;-58
2021/09/09 13:54:28;;;;;;;4.35;3.95;;;;;;;;;;5029723;28;20052;-58
2021/09/09 13:56:53;;;;;;;5.18;4.68;;;;;;;;;;5028880;28;20038;-56
2021/09/09 13:59:19;;;;;;;11.23;5.07;;;;;;;;;;5028809;28;20033;-56
2021/09/09 14:01:44;;;;;;;4.68;4.22;;;;;;;;;;5029526;28;20117;-56
2021/09/09 14:04:09;;;;;;;3.70;3.40;;;;;;;;;;5034582;28;20455;-57
2021/09/09 14:06:36;;;;;;;3.85;3.45;;;;;;;;;;5023420;28;20033;-57
2021/09/09 14:09:03;;;;;;;4.22;3.50;;;;;;;;;;5028697;28;20026;-57
2021/09/09 14:11:30;;;;;;;4.43;4.03;;;;;;;;;;5039781;28;20096;-58
2021/09/09 14:13:56;;;;;;;4.43;4.03;;;;;;;;;;5029061;28;20029;-58
2021/09/09 14:16:21;;;;;;;4.93;4.40;;;;;;;;;;5030409;28;20120;-58
2021/09/09 14:18:47;;;;;;;4.82;4.32;;;;;;;;;;5028817;28;20155;-59
2021/09/09 14:21:12;;;;;;;5.30;3.92;;;;;;;;;;5029406;28;20048;-57
2021/09/09 14:23:38;;;;;;;5.15;3.20;;;;;;;;;;5028359;28;20088;-57
2021/09/09 14:26:05;;;;;;;3.35;2.78;;;;;;;;;;5029953;28;20028;-57
2021/09/09 14:28:31;;;;;;;3.75;3.15;;;;;;;;;;5028958;28;20446;-57
2021/09/09 14:30:56;;;;;;;3.80;3.15;;;;;;;;;;5028730;28;20033;-58
2021/09/09 14:33:22;;;;;;;11.85;2.97;;;;;;;;;;5028764;28;20041;-58
2021/09/09 14:35:47;;;;;;;6.25;3.30;;;;;;;;;;5024001;28;20033;-58
2021/09/09 14:38:12;;;;;;;4.25;2.85;;;;;;;;;;5029133;28;20049;-58
2021/09/09 14:40:38;;;;;;;4.63;3.30;;;;;;;;;;5029431;28;20026;-58